ブリスベン の空港の天気 - METARとTAF

ブリスベン空港 ( YBBN / BNE ) - オーストラリア クイーンズランド州ブリスベン
飛行場実況気象(Metar)
観測時間08/18 22:30 AEST (08/18 12:30 UTC)
風向・風速北 3m/s
視程10km以上
天気現象
なし
気温13℃
湿度88%
気圧1017hPa
METARYBBN 181230Z 36006KT CAVOK 13/11 Q1017
過去の天気等 Google飛行場航空写真 Wunderground天気予報

過去48時間のMETAR

飛行場予報(TAF)
発表時間: 8/18 21:09 AEST (8/18 11:09 UTC)
予報対象時間: 18日22時 AEST ~ 20日4時 AEST
風向・風速北西 3m/s
視程10km以上
なし
19日3時 AEST から
風向・風速西 3m/s
視程10km以上
なし
19日7時 AEST から
風向・風速北北西 5m/s
視程10km以上
なし
19日18時 AEST から
風向・風速西 5m/s
視程10km以上
なし
TAF YBBN 181109Z 1812/1918 32006KT CAVOK
FM181700 26006KT CAVOK
FM182100 34009KT CAVOK
FM190800 26010KT CAVOK